Strona główna
METAR-TAF:

METAR-TAF

Lotnisko :

Vlissingen, Holandia

Szerokość geograficzna: 51-27N, Długość geograficzna: 3-36E, wysokość: 10 m

Aktualna obserwacja pogody

Raport powstał 38 minut temu, godzina 01:55 UTC
Wiatr 29 kt od zachodnio-południowy zachód
Temperatura 8°C
Wilgotność 71%
Ciśnienie 1008 hPa
Widzialność: 8000 m

METAR: EHFS 170155Z AUTO 24029KT 8000 NCD 08/03 Q1008

czas: 03:33 (02:33 UTC)


TAF: brakujący

Obserwacja i prognoza pogody dla ponad 4000 lotnisk (raport METAR i TAF).

Dostępne stacje oznaczono żółtymi i czerwonymi punktami na mapie.

Najedź kursorem aby zobaczyć nazwę stacji.

Kliknij aby zobaczyć obserwacje i prognozy pogody.

Aby zmienić mapę: kliknij na zielony przycisk z czarnym krzyżykiem, aby powiększyć; na zielony przycisk z myślnikiem, aby pomniejszyć; na zielone strzałki, aby przejść do map sąsiednich.


METAR-TAF: